sensor_id;sensor_type;location;lat;lon;timestamp;P1;durP1;ratioP1;P2;durP2;ratioP2
31130;SDS011;20292;50.944;4.034;2022-08-03T00:00:42;4.13;;;1.70;;
31130;SDS011;20292;50.944;4.034;2022-08-03T00:03:08;5.38;;;1.70;;
31130;SDS011;20292;50.944;4.034;2022-08-03T00:05:35;9.38;;;1.88;;
31130;SDS011;20292;50.944;4.034;2022-08-03T00:08:00;7.65;;;1.88;;
31130;SDS011;20292;50.944;4.034;2022-08-03T00:10:26;13.07;;;1.75;;
31130;SDS011;20292;50.944;4.034;2022-08-03T00:12:52;7.93;;;1.80;;
31130;SDS011;20292;50.944;4.034;2022-08-03T00:15:18;4.85;;;1.50;;
31130;SDS011;20292;50.944;4.034;2022-08-03T00:17:44;7.70;;;1.90;;
31130;SDS011;20292;50.944;4.034;2022-08-03T00:20:09;8.52;;;1.85;;
31130;SDS011;20292;50.944;4.034;2022-08-03T00:22:36;10.30;;;1.95;;
31130;SDS011;20292;50.944;4.034;2022-08-03T00:25:01;5.85;;;1.80;;
31130;SDS011;20292;50.944;4.034;2022-08-03T00:27:27;10.38;;;2.33;;
31130;SDS011;20292;50.944;4.034;2022-08-03T00:29:53;7.60;;;2.45;;
31130;SDS011;20292;50.944;4.034;2022-08-03T00:32:18;11.90;;;2.10;;
31130;SDS011;20292;50.944;4.034;2022-08-03T00:34:44;9.45;;;1.95;;
31130;SDS011;20292;50.944;4.034;2022-08-03T00:37:09;7.50;;;2.15;;
31130;SDS011;20292;50.944;4.034;2022-08-03T00:39:35;14.52;;;2.47;;
31130;SDS011;20292;50.944;4.034;2022-08-03T00:42:01;8.98;;;2.33;;
31130;SDS011;20292;50.944;4.034;2022-08-03T00:44:28;9.07;;;1.83;;
31130;SDS011;20292;50.944;4.034;2022-08-03T00:46:54;12.68;;;2.22;;
31130;SDS011;20292;50.944;4.034;2022-08-03T00:49:19;8.23;;;2.00;;
31130;SDS011;20292;50.944;4.034;2022-08-03T00:51:46;10.07;;;2.20;;
31130;SDS011;20292;50.944;4.034;2022-08-03T00:54:12;10.57;;;1.95;;
31130;SDS011;20292;50.944;4.034;2022-08-03T00:56:38;6.93;;;1.60;;
31130;SDS011;20292;50.944;4.034;2022-08-03T00:59:06;6.57;;;1.73;;
31130;SDS011;20292;50.944;4.034;2022-08-03T01:01:33;7.18;;;1.80;;
31130;SDS011;20292;50.944;4.034;2022-08-03T01:03:59;7.72;;;1.65;;
31130;SDS011;20292;50.944;4.034;2022-08-03T01:06:29;9.88;;;2.03;;
31130;SDS011;20292;50.944;4.034;2022-08-03T01:11:51;6.10;;;1.60;;
31130;SDS011;20292;50.944;4.034;2022-08-03T01:14:45;8.70;;;1.95;;
31130;SDS011;20292;50.944;4.034;2022-08-03T01:17:42;11.07;;;2.15;;
31130;SDS011;20292;50.944;4.034;2022-08-03T01:20:15;8.00;;;1.92;;
31130;SDS011;20292;50.944;4.034;2022-08-03T01:26:12;10.38;;;2.10;;
31130;SDS011;20292;50.944;4.034;2022-08-03T01:31:22;8.00;;;1.73;;
31130;SDS011;20292;50.944;4.034;2022-08-03T01:33:58;12.52;;;2.50;;
31130;SDS011;20292;50.944;4.034;2022-08-03T01:36:28;9.15;;;2.00;;
31130;SDS011;20292;50.944;4.034;2022-08-03T01:39:00;8.25;;;1.90;;
31130;SDS011;20292;50.944;4.034;2022-08-03T01:41:28;10.65;;;1.98;;
31130;SDS011;20292;50.944;4.034;2022-08-03T01:43:57;8.15;;;1.90;;
31130;SDS011;20292;50.944;4.034;2022-08-03T01:46:26;11.20;;;2.40;;
31130;SDS011;20292;50.944;4.034;2022-08-03T01:48:53;11.55;;;1.95;;
31130;SDS011;20292;50.944;4.034;2022-08-03T01:51:20;9.95;;;2.10;;
31130;SDS011;20292;50.944;4.034;2022-08-03T01:53:47;9.38;;;1.83;;
31130;SDS011;20292;50.944;4.034;2022-08-03T01:56:15;6.22;;;2.03;;
31130;SDS011;20292;50.944;4.034;2022-08-03T01:58:42;9.65;;;2.13;;
31130;SDS011;20292;50.944;4.034;2022-08-03T02:01:09;8.90;;;2.28;;
31130;SDS011;20292;50.944;4.034;2022-08-03T02:03:38;8.35;;;2.30;;
31130;SDS011;20292;50.944;4.034;2022-08-03T02:06:06;8.30;;;2.05;;
31130;SDS011;20292;50.944;4.034;2022-08-03T02:08:36;8.95;;;2.00;;
31130;SDS011;20292;50.944;4.034;2022-08-03T02:11:07;7.97;;;1.73;;
31130;SDS011;20292;50.944;4.034;2022-08-03T02:13:33;7.47;;;2.08;;
31130;SDS011;20292;50.944;4.034;2022-08-03T02:16:02;9.88;;;2.42;;
31130;SDS011;20292;50.944;4.034;2022-08-03T02:18:29;9.13;;;2.58;;
31130;SDS011;20292;50.944;4.034;2022-08-03T02:20:56;12.32;;;2.30;;
31130;SDS011;20292;50.944;4.034;2022-08-03T02:23:24;10.57;;;2.17;;
31130;SDS011;20292;50.944;4.034;2022-08-03T02:25:52;8.48;;;2.13;;
31130;SDS011;20292;50.944;4.034;2022-08-03T02:28:23;6.15;;;1.95;;
31130;SDS011;20292;50.944;4.034;2022-08-03T02:30:55;13.40;;;2.53;;
31130;SDS011;20292;50.944;4.034;2022-08-03T02:33:25;10.07;;;2.17;;
31130;SDS011;20292;50.944;4.034;2022-08-03T02:35:54;12.02;;;1.95;;
31130;SDS011;20292;50.944;4.034;2022-08-03T02:38:22;12.25;;;2.35;;
31130;SDS011;20292;50.944;4.034;2022-08-03T02:40:55;10.52;;;2.40;;
31130;SDS011;20292;50.944;4.034;2022-08-03T02:43:22;6.93;;;1.92;;
31130;SDS011;20292;50.944;4.034;2022-08-03T02:45:49;11.27;;;2.08;;
31130;SDS011;20292;50.944;4.034;2022-08-03T02:48:17;8.70;;;1.85;;
31130;SDS011;20292;50.944;4.034;2022-08-03T02:50:47;11.52;;;2.30;;
31130;SDS011;20292;50.944;4.034;2022-08-03T02:53:17;6.53;;;1.90;;
31130;SDS011;20292;50.944;4.034;2022-08-03T02:55:45;8.90;;;2.10;;
31130;SDS011;20292;50.944;4.034;2022-08-03T02:58:12;8.68;;;1.92;;
31130;SDS011;20292;50.944;4.034;2022-08-03T03:00:38;12.77;;;2.03;;
31130;SDS011;20292;50.944;4.034;2022-08-03T03:03:05;15.75;;;2.33;;
31130;SDS011;20292;50.944;4.034;2022-08-03T03:05:31;15.77;;;2.25;;
31130;SDS011;20292;50.944;4.034;2022-08-03T03:07:58;6.28;;;1.92;;
31130;SDS011;20292;50.944;4.034;2022-08-03T03:10:24;7.60;;;2.20;;
31130;SDS011;20292;50.944;4.034;2022-08-03T03:12:52;11.52;;;2.40;;
31130;SDS011;20292;50.944;4.034;2022-08-03T03:15:20;17.48;;;2.75;;
31130;SDS011;20292;50.944;4.034;2022-08-03T03:17:47;7.60;;;2.22;;
31130;SDS011;20292;50.944;4.034;2022-08-03T03:20:14;6.63;;;1.92;;
31130;SDS011;20292;50.944;4.034;2022-08-03T03:22:41;10.68;;;1.90;;
31130;SDS011;20292;50.944;4.034;2022-08-03T03:25:08;8.15;;;2.03;;
31130;SDS011;20292;50.944;4.034;2022-08-03T03:27:34;9.68;;;2.20;;
31130;SDS011;20292;50.944;4.034;2022-08-03T03:30:00;15.43;;;2.03;;
31130;SDS011;20292;50.944;4.034;2022-08-03T03:32:27;14.65;;;2.40;;
31130;SDS011;20292;50.944;4.034;2022-08-03T03:34:54;7.35;;;2.38;;
31130;SDS011;20292;50.944;4.034;2022-08-03T03:37:20;7.55;;;2.00;;
31130;SDS011;20292;50.944;4.034;2022-08-03T03:39:46;13.65;;;2.45;;
31130;SDS011;20292;50.944;4.034;2022-08-03T03:42:12;13.30;;;2.50;;
31130;SDS011;20292;50.944;4.034;2022-08-03T03:44:37;11.57;;;1.83;;
31130;SDS011;20292;50.944;4.034;2022-08-03T03:47:03;9.00;;;2.25;;
31130;SDS011;20292;50.944;4.034;2022-08-03T03:49:30;8.13;;;2.20;;
31130;SDS011;20292;50.944;4.034;2022-08-03T03:51:56;9.25;;;2.10;;
31130;SDS011;20292;50.944;4.034;2022-08-03T03:54:22;11.25;;;2.47;;
31130;SDS011;20292;50.944;4.034;2022-08-03T03:56:47;6.80;;;2.22;;
31130;SDS011;20292;50.944;4.034;2022-08-03T03:59:13;7.05;;;2.40;;
31130;SDS011;20292;50.944;4.034;2022-08-03T04:01:39;10.13;;;2.33;;
31130;SDS011;20292;50.944;4.034;2022-08-03T04:04:05;8.15;;;2.08;;
31130;SDS011;20292;50.944;4.034;2022-08-03T04:06:49;11.65;;;2.42;;
31130;SDS011;20292;50.944;4.034;2022-08-03T04:09:37;10.95;;;2.42;;
31130;SDS011;20292;50.944;4.034;2022-08-03T04:12:24;14.15;;;2.65;;
31130;SDS011;20292;50.944;4.034;2022-08-03T04:14:52;9.30;;;2.55;;
31130;SDS011;20292;50.944;4.034;2022-08-03T04:17:20;5.57;;;2.10;;
31130;SDS011;20292;50.944;4.034;2022-08-03T04:19:51;11.57;;;2.63;;
31130;SDS011;20292;50.944;4.034;2022-08-03T04:22:19;10.63;;;2.30;;
31130;SDS011;20292;50.944;4.034;2022-08-03T04:24:51;11.63;;;2.20;;
31130;SDS011;20292;50.944;4.034;2022-08-03T04:27:24;15.77;;;2.55;;
31130;SDS011;20292;50.944;4.034;2022-08-03T04:29:52;8.80;;;2.85;;
31130;SDS011;20292;50.944;4.034;2022-08-03T04:32:21;10.23;;;2.25;;
31130;SDS011;20292;50.944;4.034;2022-08-03T04:34:50;8.20;;;2.15;;
31130;SDS011;20292;50.944;4.034;2022-08-03T04:37:32;11.80;;;2.50;;
31130;SDS011;20292;50.944;4.034;2022-08-03T04:40:07;10.48;;;2.75;;
31130;SDS011;20292;50.944;4.034;2022-08-03T04:42:35;10.93;;;2.42;;
31130;SDS011;20292;50.944;4.034;2022-08-03T04:45:03;13.07;;;2.08;;
31130;SDS011;20292;50.944;4.034;2022-08-03T04:47:31;9.70;;;2.72;;
31130;SDS011;20292;50.944;4.034;2022-08-03T04:49:58;7.97;;;2.38;;
31130;SDS011;20292;50.944;4.034;2022-08-03T04:52:26;12.95;;;2.78;;
31130;SDS011;20292;50.944;4.034;2022-08-03T04:54:51;9.95;;;2.40;;
31130;SDS011;20292;50.944;4.034;2022-08-03T04:57:17;9.45;;;2.45;;
31130;SDS011;20292;50.944;4.034;2022-08-03T04:59:43;8.77;;;2.15;;
31130;SDS011;20292;50.944;4.034;2022-08-03T05:02:09;8.30;;;2.15;;
31130;SDS011;20292;50.944;4.034;2022-08-03T05:04:34;9.60;;;2.08;;
31130;SDS011;20292;50.944;4.034;2022-08-03T05:07:02;6.78;;;2.47;;
31130;SDS011;20292;50.944;4.034;2022-08-03T05:09:27;9.43;;;2.10;;
31130;SDS011;20292;50.944;4.034;2022-08-03T05:11:53;13.80;;;2.10;;
31130;SDS011;20292;50.944;4.034;2022-08-03T05:14:19;9.52;;;2.25;;
31130;SDS011;20292;50.944;4.034;2022-08-03T05:16:45;9.40;;;2.20;;
31130;SDS011;20292;50.944;4.034;2022-08-03T05:19:10;9.80;;;2.20;;
31130;SDS011;20292;50.944;4.034;2022-08-03T05:21:36;7.78;;;2.17;;
31130;SDS011;20292;50.944;4.034;2022-08-03T05:24:02;10.40;;;2.58;;
31130;SDS011;20292;50.944;4.034;2022-08-03T05:26:28;15.48;;;2.58;;
31130;SDS011;20292;50.944;4.034;2022-08-03T05:28:53;13.50;;;2.20;;
31130;SDS011;20292;50.944;4.034;2022-08-03T05:31:19;8.30;;;2.10;;
31130;SDS011;20292;50.944;4.034;2022-08-03T05:33:45;10.00;;;2.40;;
31130;SDS011;20292;50.944;4.034;2022-08-03T05:36:12;6.20;;;1.92;;
31130;SDS011;20292;50.944;4.034;2022-08-03T05:38:38;9.77;;;2.58;;
31130;SDS011;20292;50.944;4.034;2022-08-03T05:41:03;10.65;;;2.40;;
31130;SDS011;20292;50.944;4.034;2022-08-03T05:43:29;17.17;;;2.58;;
31130;SDS011;20292;50.944;4.034;2022-08-03T05:45:55;14.48;;;2.53;;
31130;SDS011;20292;50.944;4.034;2022-08-03T05:48:22;12.00;;;2.65;;
31130;SDS011;20292;50.944;4.034;2022-08-03T05:50:48;12.55;;;2.30;;
31130;SDS011;20292;50.944;4.034;2022-08-03T05:53:13;9.75;;;2.17;;
31130;SDS011;20292;50.944;4.034;2022-08-03T05:55:39;8.63;;;2.70;;
31130;SDS011;20292;50.944;4.034;2022-08-03T05:58:05;7.00;;;2.38;;
31130;SDS011;20292;50.944;4.034;2022-08-03T06:00:30;6.20;;;2.17;;
31130;SDS011;20292;50.944;4.034;2022-08-03T06:02:56;8.95;;;2.47;;
31130;SDS011;20292;50.944;4.034;2022-08-03T06:05:22;7.13;;;2.03;;
31130;SDS011;20292;50.944;4.034;2022-08-03T06:07:47;10.40;;;2.53;;
31130;SDS011;20292;50.944;4.034;2022-08-03T06:10:13;10.95;;;2.33;;
31130;SDS011;20292;50.944;4.034;2022-08-03T06:12:38;9.57;;;2.30;;
31130;SDS011;20292;50.944;4.034;2022-08-03T06:15:05;10.77;;;2.58;;
31130;SDS011;20292;50.944;4.034;2022-08-03T06:17:31;7.28;;;2.30;;
31130;SDS011;20292;50.944;4.034;2022-08-03T06:19:56;10.65;;;2.38;;
31130;SDS011;20292;50.944;4.034;2022-08-03T06:22:22;7.57;;;2.10;;
31130;SDS011;20292;50.944;4.034;2022-08-03T06:24:48;14.32;;;2.78;;
31130;SDS011;20292;50.944;4.034;2022-08-03T06:27:13;10.27;;;2.30;;
31130;SDS011;20292;50.944;4.034;2022-08-03T06:29:39;9.13;;;2.33;;
31130;SDS011;20292;50.944;4.034;2022-08-03T06:32:05;10.43;;;2.60;;
31130;SDS011;20292;50.944;4.034;2022-08-03T06:34:30;13.68;;;2.35;;
31130;SDS011;20292;50.944;4.034;2022-08-03T06:36:56;10.07;;;3.00;;
31130;SDS011;20292;50.944;4.034;2022-08-03T06:39:22;9.80;;;2.50;;
31130;SDS011;20292;50.944;4.034;2022-08-03T06:41:48;13.02;;;2.47;;
31130;SDS011;20292;50.944;4.034;2022-08-03T06:44:13;10.57;;;2.78;;
31130;SDS011;20292;50.944;4.034;2022-08-03T06:46:39;7.22;;;2.38;;
31130;SDS011;20292;50.944;4.034;2022-08-03T06:49:06;9.68;;;2.78;;
31130;SDS011;20292;50.944;4.034;2022-08-03T06:51:32;9.73;;;2.42;;
31130;SDS011;20292;50.944;4.034;2022-08-03T06:53:57;13.30;;;2.15;;
31130;SDS011;20292;50.944;4.034;2022-08-03T06:56:23;9.43;;;1.90;;
31130;SDS011;20292;50.944;4.034;2022-08-03T06:58:48;8.90;;;2.58;;
31130;SDS011;20292;50.944;4.034;2022-08-03T07:01:14;10.95;;;2.53;;
31130;SDS011;20292;50.944;4.034;2022-08-03T07:03:40;11.63;;;2.55;;
31130;SDS011;20292;50.944;4.034;2022-08-03T07:06:05;10.50;;;2.33;;
31130;SDS011;20292;50.944;4.034;2022-08-03T07:08:31;9.05;;;2.33;;
31130;SDS011;20292;50.944;4.034;2022-08-03T07:10:57;10.00;;;2.28;;
31130;SDS011;20292;50.944;4.034;2022-08-03T07:13:22;8.50;;;2.30;;
31130;SDS011;20292;50.944;4.034;2022-08-03T07:15:48;9.30;;;2.38;;
31130;SDS011;20292;50.944;4.034;2022-08-03T07:18:14;12.43;;;2.33;;
31130;SDS011;20292;50.944;4.034;2022-08-03T07:20:39;14.88;;;2.80;;
31130;SDS011;20292;50.944;4.034;2022-08-03T07:23:05;7.25;;;2.67;;
31130;SDS011;20292;50.944;4.034;2022-08-03T07:25:31;10.77;;;2.63;;
31130;SDS011;20292;50.944;4.034;2022-08-03T07:27:56;12.43;;;2.70;;
31130;SDS011;20292;50.944;4.034;2022-08-03T07:30:22;10.20;;;2.40;;
31130;SDS011;20292;50.944;4.034;2022-08-03T07:32:47;12.80;;;2.88;;
31130;SDS011;20292;50.944;4.034;2022-08-03T07:35:13;10.95;;;2.67;;
31130;SDS011;20292;50.944;4.034;2022-08-03T07:37:39;10.20;;;2.25;;
31130;SDS011;20292;50.944;4.034;2022-08-03T07:40:05;12.45;;;2.50;;
31130;SDS011;20292;50.944;4.034;2022-08-03T07:42:31;11.20;;;2.80;;
31130;SDS011;20292;50.944;4.034;2022-08-03T07:44:57;10.05;;;2.88;;
31130;SDS011;20292;50.944;4.034;2022-08-03T07:47:27;10.63;;;2.85;;
31130;SDS011;20292;50.944;4.034;2022-08-03T07:49:54;9.13;;;2.47;;
31130;SDS011;20292;50.944;4.034;2022-08-03T07:52:19;10.43;;;2.80;;
31130;SDS011;20292;50.944;4.034;2022-08-03T07:55:04;11.18;;;2.50;;
31130;SDS011;20292;50.944;4.034;2022-08-03T07:57:30;6.68;;;2.50;;
31130;SDS011;20292;50.944;4.034;2022-08-03T07:59:56;6.63;;;2.35;;
31130;SDS011;20292;50.944;4.034;2022-08-03T08:02:22;9.45;;;2.50;;
31130;SDS011;20292;50.944;4.034;2022-08-03T08:04:48;8.00;;;2.30;;
31130;SDS011;20292;50.944;4.034;2022-08-03T08:07:13;16.17;;;3.40;;
31130;SDS011;20292;50.944;4.034;2022-08-03T08:09:39;7.97;;;2.55;;
31130;SDS011;20292;50.944;4.034;2022-08-03T08:12:05;8.70;;;2.67;;
31130;SDS011;20292;50.944;4.034;2022-08-03T08:14:32;11.77;;;2.90;;
31130;SDS011;20292;50.944;4.034;2022-08-03T08:16:58;11.13;;;2.78;;
31130;SDS011;20292;50.944;4.034;2022-08-03T08:19:23;16.30;;;3.60;;
31130;SDS011;20292;50.944;4.034;2022-08-03T08:21:49;12.20;;;2.60;;
31130;SDS011;20292;50.944;4.034;2022-08-03T08:24:15;7.70;;;2.83;;
31130;SDS011;20292;50.944;4.034;2022-08-03T08:26:40;15.73;;;3.47;;
31130;SDS011;20292;50.944;4.034;2022-08-03T08:29:06;12.43;;;3.20;;
31130;SDS011;20292;50.944;4.034;2022-08-03T08:31:31;14.68;;;3.15;;
31130;SDS011;20292;50.944;4.034;2022-08-03T08:33:57;10.13;;;2.33;;
31130;SDS011;20292;50.944;4.034;2022-08-03T08:36:23;11.70;;;2.53;;
31130;SDS011;20292;50.944;4.034;2022-08-03T08:38:48;15.02;;;3.00;;
31130;SDS011;20292;50.944;4.034;2022-08-03T08:41:14;15.18;;;3.40;;
31130;SDS011;20292;50.944;4.034;2022-08-03T08:43:40;11.80;;;3.30;;
31130;SDS011;20292;50.944;4.034;2022-08-03T08:46:06;13.57;;;3.38;;
31130;SDS011;20292;50.944;4.034;2022-08-03T08:48:37;16.60;;;3.08;;
31130;SDS011;20292;50.944;4.034;2022-08-03T08:51:05;13.07;;;3.35;;
31130;SDS011;20292;50.944;4.034;2022-08-03T08:53:35;11.88;;;3.30;;
31130;SDS011;20292;50.944;4.034;2022-08-03T08:56:04;9.80;;;2.50;;
31130;SDS011;20292;50.944;4.034;2022-08-03T08:58:36;12.40;;;2.83;;
31130;SDS011;20292;50.944;4.034;2022-08-03T09:01:04;13.02;;;2.90;;
31130;SDS011;20292;50.944;4.034;2022-08-03T09:03:31;10.80;;;2.47;;
31130;SDS011;20292;50.944;4.034;2022-08-03T09:05:59;10.65;;;2.60;;
31130;SDS011;20292;50.944;4.034;2022-08-03T09:08:26;11.43;;;2.70;;
31130;SDS011;20292;50.944;4.034;2022-08-03T09:10:52;11.52;;;2.92;;
31130;SDS011;20292;50.944;4.034;2022-08-03T09:13:18;12.63;;;2.92;;
31130;SDS011;20292;50.944;4.034;2022-08-03T09:15:43;13.05;;;2.30;;
31130;SDS011;20292;50.944;4.034;2022-08-03T09:18:10;7.20;;;2.78;;
31130;SDS011;20292;50.944;4.034;2022-08-03T09:20:37;9.98;;;2.60;;
31130;SDS011;20292;50.944;4.034;2022-08-03T09:23:04;7.65;;;2.33;;
31130;SDS011;20292;50.944;4.034;2022-08-03T09:28:06;9.73;;;2.50;;
31130;SDS011;20292;50.944;4.034;2022-08-03T09:30:36;9.52;;;2.83;;
31130;SDS011;20292;50.944;4.034;2022-08-03T09:33:07;14.45;;;2.30;;
31130;SDS011;20292;50.944;4.034;2022-08-03T09:35:41;12.05;;;2.80;;
31130;SDS011;20292;50.944;4.034;2022-08-03T09:38:18;9.75;;;2.60;;
31130;SDS011;20292;50.944;4.034;2022-08-03T09:40:51;11.18;;;2.50;;
31130;SDS011;20292;50.944;4.034;2022-08-03T09:43:18;8.93;;;2.17;;
31130;SDS011;20292;50.944;4.034;2022-08-03T09:45:44;7.35;;;2.47;;
31130;SDS011;20292;50.944;4.034;2022-08-03T09:48:27;16.67;;;2.53;;
31130;SDS011;20292;50.944;4.034;2022-08-03T09:50:56;8.35;;;2.50;;
31130;SDS011;20292;50.944;4.034;2022-08-03T09:53:24;13.32;;;2.40;;
31130;SDS011;20292;50.944;4.034;2022-08-03T09:55:53;8.65;;;2.38;;
31130;SDS011;20292;50.944;4.034;2022-08-03T09:58:20;13.13;;;2.75;;
31130;SDS011;20292;50.944;4.034;2022-08-03T10:00:54;11.00;;;2.50;;
31130;SDS011;20292;50.944;4.034;2022-08-03T10:03:22;11.98;;;2.83;;
31130;SDS011;20292;50.944;4.034;2022-08-03T10:05:49;9.75;;;2.20;;
31130;SDS011;20292;50.944;4.034;2022-08-03T10:08:17;12.27;;;2.97;;
31130;SDS011;20292;50.944;4.034;2022-08-03T10:10:45;4.50;;;2.00;;
31130;SDS011;20292;50.944;4.034;2022-08-03T10:13:14;8.60;;;2.00;;
31130;SDS011;20292;50.944;4.034;2022-08-03T10:15:41;9.00;;;2.10;;
31130;SDS011;20292;50.944;4.034;2022-08-03T10:18:07;9.07;;;2.08;;
31130;SDS011;20292;50.944;4.034;2022-08-03T10:20:37;11.00;;;2.97;;
31130;SDS011;20292;50.944;4.034;2022-08-03T10:23:08;8.18;;;2.55;;
31130;SDS011;20292;50.944;4.034;2022-08-03T10:25:35;16.10;;;1.98;;
31130;SDS011;20292;50.944;4.034;2022-08-03T10:28:02;6.53;;;1.73;;
31130;SDS011;20292;50.944;4.034;2022-08-03T10:30:30;7.97;;;2.10;;
31130;SDS011;20292;50.944;4.034;2022-08-03T10:33:00;12.38;;;2.75;;
31130;SDS011;20292;50.944;4.034;2022-08-03T10:35:29;6.93;;;2.25;;
31130;SDS011;20292;50.944;4.034;2022-08-03T10:37:59;8.70;;;2.25;;
31130;SDS011;20292;50.944;4.034;2022-08-03T10:40:31;8.10;;;2.20;;
31130;SDS011;20292;50.944;4.034;2022-08-03T10:43:08;10.77;;;2.42;;
31130;SDS011;20292;50.944;4.034;2022-08-03T10:45:37;16.42;;;2.58;;
31130;SDS011;20292;50.944;4.034;2022-08-03T10:48:05;6.60;;;2.13;;
31130;SDS011;20292;50.944;4.034;2022-08-03T10:50:33;8.95;;;2.05;;
31130;SDS011;20292;50.944;4.034;2022-08-03T10:53:01;10.23;;;2.58;;
31130;SDS011;20292;50.944;4.034;2022-08-03T11:01:02;5.00;;;1.70;;
31130;SDS011;20292;50.944;4.034;2022-08-03T11:03:27;5.78;;;1.55;;
31130;SDS011;20292;50.944;4.034;2022-08-03T11:05:55;5.80;;;1.73;;
31130;SDS011;20292;50.944;4.034;2022-08-03T11:08:43;6.32;;;1.77;;
31130;SDS011;20292;50.944;4.034;2022-08-03T11:13:55;5.43;;;1.50;;
31130;SDS011;20292;50.944;4.034;2022-08-03T11:16:29;3.28;;;1.70;;
31130;SDS011;20292;50.944;4.034;2022-08-03T11:21:51;7.95;;;1.90;;
31130;SDS011;20292;50.944;4.034;2022-08-03T11:27:18;4.38;;;1.55;;
31130;SDS011;20292;50.944;4.034;2022-08-03T11:29:56;3.30;;;1.50;;
31130;SDS011;20292;50.944;4.034;2022-08-03T11:40:39;5.03;;;1.70;;
31130;SDS011;20292;50.944;4.034;2022-08-03T11:46:02;7.03;;;1.40;;
31130;SDS011;20292;50.944;4.034;2022-08-03T11:48:34;5.47;;;1.55;;
31130;SDS011;20292;50.944;4.034;2022-08-03T11:51:17;2.50;;;1.30;;
31130;SDS011;20292;50.944;4.034;2022-08-03T11:53:59;6.57;;;1.83;;
31130;SDS011;20292;50.944;4.034;2022-08-03T11:56:27;10.27;;;2.00;;
31130;SDS011;20292;50.944;4.034;2022-08-03T11:59:07;3.10;;;1.50;;
31130;SDS011;20292;50.944;4.034;2022-08-03T12:01:32;5.20;;;1.35;;
31130;SDS011;20292;50.944;4.034;2022-08-03T12:04:01;4.57;;;1.38;;
31130;SDS011;20292;50.944;4.034;2022-08-03T12:06:28;7.00;;;1.73;;
31130;SDS011;20292;50.944;4.034;2022-08-03T12:08:54;6.85;;;1.60;;
31130;SDS011;20292;50.944;4.034;2022-08-03T12:11:19;4.68;;;1.60;;
31130;SDS011;20292;50.944;4.034;2022-08-03T12:13:46;3.58;;;1.40;;
31130;SDS011;20292;50.944;4.034;2022-08-03T12:16:18;5.78;;;1.52;;
31130;SDS011;20292;50.944;4.034;2022-08-03T12:18:53;6.30;;;1.50;;
31130;SDS011;20292;50.944;4.034;2022-08-03T12:21:20;3.33;;;1.27;;
31130;SDS011;20292;50.944;4.034;2022-08-03T12:23:48;3.92;;;1.42;;
31130;SDS011;20292;50.944;4.034;2022-08-03T12:26:14;3.63;;;1.63;;
31130;SDS011;20292;50.944;4.034;2022-08-03T12:28:46;6.78;;;1.75;;
31130;SDS011;20292;50.944;4.034;2022-08-03T12:31:12;5.65;;;1.50;;
31130;SDS011;20292;50.944;4.034;2022-08-03T12:33:57;6.60;;;1.73;;
31130;SDS011;20292;50.944;4.034;2022-08-03T12:36:29;5.82;;;1.30;;
31130;SDS011;20292;50.944;4.034;2022-08-03T12:38:57;5.07;;;1.58;;
31130;SDS011;20292;50.944;4.034;2022-08-03T12:41:35;7.97;;;1.67;;
31130;SDS011;20292;50.944;4.034;2022-08-03T12:44:02;7.20;;;1.70;;
31130;SDS011;20292;50.944;4.034;2022-08-03T12:46:30;7.00;;;2.33;;
31130;SDS011;20292;50.944;4.034;2022-08-03T12:49:14;4.53;;;1.65;;
31130;SDS011;20292;50.944;4.034;2022-08-03T12:54:06;5.97;;;1.73;;
31130;SDS011;20292;50.944;4.034;2022-08-03T12:56:32;7.25;;;1.67;;
31130;SDS011;20292;50.944;4.034;2022-08-03T12:58:58;6.47;;;1.55;;
31130;SDS011;20292;50.944;4.034;2022-08-03T13:01:24;6.10;;;1.40;;
31130;SDS011;20292;50.944;4.034;2022-08-03T13:03:52;4.05;;;1.42;;
31130;SDS011;20292;50.944;4.034;2022-08-03T13:06:24;3.65;;;1.63;;
31130;SDS011;20292;50.944;4.034;2022-08-03T13:09:00;4.97;;;1.50;;
31130;SDS011;20292;50.944;4.034;2022-08-03T13:11:30;6.70;;;1.80;;
31130;SDS011;20292;50.944;4.034;2022-08-03T13:13:56;4.35;;;1.45;;
31130;SDS011;20292;50.944;4.034;2022-08-03T13:16:21;6.28;;;1.85;;
31130;SDS011;20292;50.944;4.034;2022-08-03T13:18:48;5.85;;;1.92;;
31130;SDS011;20292;50.944;4.034;2022-08-03T13:21:15;7.13;;;1.73;;
31130;SDS011;20292;50.944;4.034;2022-08-03T13:23:42;4.55;;;1.58;;
31130;SDS011;20292;50.944;4.034;2022-08-03T13:26:08;7.47;;;1.58;;
31130;SDS011;20292;50.944;4.034;2022-08-03T13:28:34;4.40;;;2.08;;
31130;SDS011;20292;50.944;4.034;2022-08-03T13:31:00;5.47;;;1.60;;
31130;SDS011;20292;50.944;4.034;2022-08-03T13:33:26;3.90;;;1.90;;
31130;SDS011;20292;50.944;4.034;2022-08-03T13:35:52;7.72;;;2.42;;
31130;SDS011;20292;50.944;4.034;2022-08-03T13:38:19;5.53;;;1.80;;
31130;SDS011;20292;50.944;4.034;2022-08-03T13:40:44;10.75;;;1.50;;
31130;SDS011;20292;50.944;4.034;2022-08-03T13:43:10;5.50;;;1.70;;
31130;SDS011;20292;50.944;4.034;2022-08-03T13:45:36;5.63;;;1.75;;
31130;SDS011;20292;50.944;4.034;2022-08-03T13:48:02;3.45;;;1.52;;
31130;SDS011;20292;50.944;4.034;2022-08-03T13:50:28;7.07;;;1.58;;
31130;SDS011;20292;50.944;4.034;2022-08-03T13:52:55;6.75;;;1.60;;
31130;SDS011;20292;50.944;4.034;2022-08-03T13:55:21;9.70;;;1.80;;
31130;SDS011;20292;50.944;4.034;2022-08-03T13:57:47;7.22;;;1.73;;
31130;SDS011;20292;50.944;4.034;2022-08-03T14:00:13;4.60;;;1.60;;
31130;SDS011;20292;50.944;4.034;2022-08-03T14:02:40;6.22;;;1.70;;
31130;SDS011;20292;50.944;4.034;2022-08-03T14:05:06;4.35;;;1.50;;
31130;SDS011;20292;50.944;4.034;2022-08-03T14:07:32;5.13;;;1.67;;
31130;SDS011;20292;50.944;4.034;2022-08-03T14:09:57;8.55;;;1.75;;
31130;SDS011;20292;50.944;4.034;2022-08-03T14:12:25;4.72;;;1.40;;
31130;SDS011;20292;50.944;4.034;2022-08-03T14:14:51;9.98;;;1.75;;
31130;SDS011;20292;50.944;4.034;2022-08-03T14:17:17;4.95;;;1.38;;
31130;SDS011;20292;50.944;4.034;2022-08-03T14:19:42;5.00;;;1.90;;
31130;SDS011;20292;50.944;4.034;2022-08-03T14:22:08;2.70;;;1.60;;
31130;SDS011;20292;50.944;4.034;2022-08-03T14:24:33;4.80;;;1.70;;
31130;SDS011;20292;50.944;4.034;2022-08-03T14:26:59;5.65;;;1.85;;
31130;SDS011;20292;50.944;4.034;2022-08-03T14:29:25;4.28;;;1.63;;
31130;SDS011;20292;50.944;4.034;2022-08-03T14:31:50;6.05;;;1.60;;
31130;SDS011;20292;50.944;4.034;2022-08-03T14:34:16;4.18;;;1.77;;
31130;SDS011;20292;50.944;4.034;2022-08-03T14:36:42;6.93;;;2.10;;
31130;SDS011;20292;50.944;4.034;2022-08-03T14:39:07;8.35;;;3.00;;
31130;SDS011;20292;50.944;4.034;2022-08-03T14:41:33;4.60;;;2.03;;
31130;SDS011;20292;50.944;4.034;2022-08-03T14:43:59;4.93;;;2.00;;
31130;SDS011;20292;50.944;4.034;2022-08-03T14:46:24;3.60;;;1.60;;
31130;SDS011;20292;50.944;4.034;2022-08-03T14:48:50;3.28;;;1.50;;
31130;SDS011;20292;50.944;4.034;2022-08-03T14:51:16;4.20;;;1.48;;
31130;SDS011;20292;50.944;4.034;2022-08-03T14:53:41;6.93;;;1.88;;
31130;SDS011;20292;50.944;4.034;2022-08-03T14:56:07;5.05;;;1.67;;
31130;SDS011;20292;50.944;4.034;2022-08-03T14:58:34;4.63;;;1.40;;
31130;SDS011;20292;50.944;4.034;2022-08-03T15:00:59;5.28;;;1.83;;
31130;SDS011;20292;50.944;4.034;2022-08-03T15:03:25;5.00;;;1.80;;
31130;SDS011;20292;50.944;4.034;2022-08-03T15:05:51;5.55;;;1.98;;
31130;SDS011;20292;50.944;4.034;2022-08-03T15:08:19;6.15;;;2.17;;
31130;SDS011;20292;50.944;4.034;2022-08-03T15:10:45;7.20;;;2.05;;
31130;SDS011;20292;50.944;4.034;2022-08-03T15:13:12;4.32;;;1.50;;
31130;SDS011;20292;50.944;4.034;2022-08-03T15:15:37;4.15;;;1.80;;
31130;SDS011;20292;50.944;4.034;2022-08-03T15:18:03;8.90;;;1.88;;
31130;SDS011;20292;50.944;4.034;2022-08-03T15:20:29;7.13;;;2.00;;
31130;SDS011;20292;50.944;4.034;2022-08-03T15:22:55;5.80;;;2.00;;
31130;SDS011;20292;50.944;4.034;2022-08-03T15:25:21;4.97;;;1.95;;